createdAt,value
2023-02-22T00:02:26.140Z,-13.16
2023-02-22T00:04:56.392Z,-13.44
2023-02-22T00:07:25.067Z,-13.58
2023-02-22T00:09:53.667Z,-13.49
2023-02-22T00:12:22.180Z,-12.83
2023-02-22T00:14:51.314Z,-12.74
2023-02-22T00:17:20.843Z,-12.65
2023-02-22T00:19:50.868Z,-12.82
2023-02-22T00:22:20.906Z,-12.87
2023-02-22T00:24:50.458Z,-12.87
2023-02-22T00:27:19.174Z,-13.09
2023-02-22T00:29:47.989Z,-13.09
2023-02-22T00:32:16.804Z,-13.07
2023-02-22T00:34:45.394Z,-12.92
2023-02-22T00:37:13.895Z,-12.87
2023-02-22T00:39:44.017Z,-13.10
2023-02-22T00:42:12.458Z,-13.22
2023-02-22T00:44:40.954Z,-13.24
2023-02-22T00:47:09.735Z,-13.10
2023-02-22T00:49:39.265Z,-12.80
2023-02-22T00:52:09.358Z,-12.68
2023-02-22T00:54:37.972Z,-12.71
2023-02-22T00:57:07.876Z,-12.94
2023-02-22T00:59:36.962Z,-12.84
2023-02-22T01:02:05.707Z,-12.93
2023-02-22T01:04:34.237Z,-13.08
2023-02-22T01:07:03.473Z,-13.53
2023-02-22T01:09:32.945Z,-13.72
2023-02-22T01:12:01.416Z,-13.68
2023-02-22T01:14:31.446Z,-13.67
2023-02-22T01:17:00.023Z,-13.68
2023-02-22T01:19:28.712Z,-13.83
2023-02-22T01:21:57.296Z,-13.99
2023-02-22T01:24:25.776Z,-14.19
2023-02-22T01:26:56.241Z,-14.70
2023-02-22T01:29:24.754Z,-14.26
2023-02-22T01:31:57.542Z,-14.71
2023-02-22T01:34:27.153Z,-14.42
2023-02-22T01:36:55.730Z,-14.23
2023-02-22T01:39:24.348Z,-14.29
2023-02-22T01:41:53.961Z,-14.40
2023-02-22T01:44:29.309Z,-15.03
2023-02-22T01:47:03.635Z,-15.12
2023-02-22T01:49:36.197Z,-15.40
2023-02-22T01:52:09.991Z,-15.50
2023-02-22T01:54:43.679Z,-15.50
2023-02-22T01:57:17.412Z,-15.29
2023-02-22T01:59:51.375Z,-15.52
2023-02-22T02:02:25.479Z,-15.59
2023-02-22T02:04:57.903Z,-15.77
2023-02-22T02:07:29.902Z,-15.66
2023-02-22T02:10:00.511Z,-15.93
2023-02-22T02:12:31.576Z,-16.20
2023-02-22T02:15:19.278Z,-16.39
2023-02-22T02:17:50.240Z,-16.39
2023-02-22T02:20:26.139Z,-16.48
2023-02-22T02:23:02.208Z,-16.53
2023-02-22T02:26:00.720Z,-16.31
2023-02-22T02:29:03.151Z,-16.55
2023-02-22T02:31:55.309Z,-16.60
2023-02-22T02:34:33.173Z,-16.50
2023-02-22T02:37:10.353Z,-16.36
2023-02-22T02:39:43.693Z,-16.53
2023-02-22T02:42:16.525Z,-17.03
2023-02-22T02:44:51.197Z,-16.89
2023-02-22T02:47:25.952Z,-17.01
2023-02-22T02:49:58.520Z,-16.54
2023-02-22T02:52:30.975Z,-16.46
2023-02-22T02:55:00.945Z,-17.06
2023-02-22T02:57:29.442Z,-16.94
2023-02-22T02:59:57.964Z,-17.26
2023-02-22T03:02:41.586Z,-17.46
2023-02-22T03:05:27.011Z,-17.91
2023-02-22T03:08:02.732Z,-17.58
2023-02-22T03:10:47.287Z,-17.36
2023-02-22T03:13:20.983Z,-17.42
2023-02-22T03:15:57.232Z,-17.41
2023-02-22T03:18:32.706Z,-17.31
2023-02-22T03:21:09.027Z,-17.82
2023-02-22T03:23:47.562Z,-17.91
2023-02-22T03:26:24.115Z,-17.62
2023-02-22T03:28:57.935Z,-18.18
2023-02-22T03:31:31.265Z,-18.09
2023-02-22T03:34:05.548Z,-18.19
2023-02-22T03:36:39.229Z,-18.09
2023-02-22T03:39:16.223Z,-17.92
2023-02-22T03:41:51.668Z,-17.57
2023-02-22T03:44:29.016Z,-18.07
2023-02-22T03:47:02.246Z,-18.39
2023-02-22T03:49:36.388Z,-18.40
2023-02-22T03:52:08.339Z,-18.09
2023-02-22T03:54:38.923Z,-18.01
2023-02-22T03:57:12.092Z,-17.96
2023-02-22T03:59:44.555Z,-18.18
2023-02-22T04:02:13.592Z,-18.25
2023-02-22T04:04:44.230Z,-18.19
2023-02-22T04:07:13.008Z,-18.04
2023-02-22T04:09:42.216Z,-18.18
2023-02-22T04:12:12.028Z,-17.96
2023-02-22T04:14:59.488Z,-18.35
2023-02-22T04:17:28.596Z,-18.00
2023-02-22T04:20:00.368Z,-18.09
2023-02-22T04:22:36.342Z,-18.13
2023-02-22T04:25:06.310Z,-18.34
2023-02-22T04:27:35.886Z,-18.29
2023-02-22T04:30:05.867Z,-18.12
2023-02-22T04:32:36.434Z,-17.92
2023-02-22T04:35:11.143Z,-18.18
2023-02-22T04:37:40.198Z,-18.25
2023-02-22T04:40:11.818Z,-18.08
2023-02-22T04:42:41.637Z,-17.90
2023-02-22T04:45:11.631Z,-17.71
2023-02-22T04:47:42.173Z,-17.52
2023-02-22T04:50:14.989Z,-17.42
2023-02-22T04:52:43.706Z,-17.46
2023-02-22T04:55:13.927Z,-17.41
2023-02-22T04:57:47.869Z,-17.24
2023-02-22T05:00:21.926Z,-16.99
2023-02-22T05:02:58.466Z,-17.00
2023-02-22T05:05:29.171Z,-17.06
2023-02-22T05:07:58.198Z,-17.37
2023-02-22T05:10:30.012Z,-17.47
2023-02-22T05:13:03.831Z,-17.18
2023-02-22T05:15:33.436Z,-17.09
2023-02-22T05:18:04.289Z,-16.82
2023-02-22T05:20:36.174Z,-16.92
2023-02-22T05:23:07.118Z,-17.03
2023-02-22T05:25:35.919Z,-16.77
2023-02-22T05:28:07.384Z,-16.48
2023-02-22T05:30:40.050Z,-16.49
2023-02-22T05:33:09.406Z,-16.43
2023-02-22T05:35:39.911Z,-16.52
2023-02-22T05:38:15.329Z,-16.50
2023-02-22T05:40:45.210Z,-16.42
2023-02-22T05:43:14.341Z,-16.50
2023-02-22T05:45:44.194Z,-16.13
2023-02-22T05:48:13.890Z,-15.98
2023-02-22T05:50:44.290Z,-16.26
2023-02-22T05:53:21.873Z,-16.29
2023-02-22T05:55:51.322Z,-16.12
2023-02-22T05:58:22.583Z,-15.94
2023-02-22T06:00:52.279Z,-15.89
2023-02-22T06:03:23.216Z,-16.33
2023-02-22T06:05:56.857Z,-16.38
2023-02-22T06:08:26.015Z,-16.40
2023-02-22T06:11:00.462Z,-16.37
2023-02-22T06:13:32.012Z,-16.34
2023-02-22T06:16:03.985Z,-16.00
2023-02-22T06:18:33.443Z,-15.98
2023-02-22T06:21:04.622Z,-15.93
2023-02-22T06:23:36.566Z,-15.97
2023-02-22T06:26:06.383Z,-15.74
2023-02-22T06:28:35.746Z,-15.55
2023-02-22T06:31:04.969Z,-15.25
2023-02-22T06:33:33.834Z,-15.52
2023-02-22T06:36:07.297Z,-15.83
2023-02-22T06:38:36.238Z,-15.54
2023-02-22T06:41:04.957Z,-15.35
2023-02-22T06:43:36.011Z,-15.21
2023-02-22T06:46:04.916Z,-15.19
2023-02-22T06:48:33.812Z,-15.17
2023-02-22T06:51:04.233Z,-15.04
2023-02-22T06:53:33.171Z,-15.68
2023-02-22T06:56:03.339Z,-15.97
2023-02-22T06:58:53.395Z,-15.98
2023-02-22T07:01:28.244Z,-15.38
2023-02-22T07:03:59.161Z,-15.07
2023-02-22T07:06:34.569Z,-14.85
2023-02-22T07:09:10.493Z,-14.58
2023-02-22T07:11:40.494Z,-14.56
2023-02-22T07:14:12.191Z,-14.63
2023-02-22T07:16:42.218Z,-14.93
2023-02-22T07:19:15.728Z,-14.92
2023-02-22T07:21:48.142Z,-14.73
2023-02-22T07:24:17.613Z,-14.45
2023-02-22T07:26:49.917Z,-14.54
2023-02-22T07:29:22.700Z,-14.38
2023-02-22T07:31:52.038Z,-14.53
2023-02-22T07:34:20.812Z,-14.53
2023-02-22T07:36:51.257Z,-14.66
2023-02-22T07:39:20.912Z,-14.59
2023-02-22T07:41:50.095Z,-14.55
2023-02-22T07:44:25.876Z,-14.52
2023-02-22T07:46:57.425Z,-14.33
2023-02-22T07:49:26.362Z,-14.17
2023-02-22T07:51:56.736Z,-14.08
2023-02-22T07:54:28.518Z,-13.96
2023-02-22T07:57:00.438Z,-14.01
2023-02-22T07:59:29.725Z,-13.93
2023-02-22T08:01:58.800Z,-13.75
2023-02-22T08:04:27.859Z,-13.76
2023-02-22T08:06:58.575Z,-13.71
2023-02-22T08:09:27.618Z,-13.87
2023-02-22T08:11:56.358Z,-13.78
2023-02-22T08:14:26.413Z,-13.97
2023-02-22T08:16:57.833Z,-13.58
2023-02-22T08:19:30.148Z,-13.38
2023-02-22T08:22:00.518Z,-13.18
2023-02-22T08:24:30.834Z,-13.08
2023-02-22T08:27:01.055Z,-13.11
2023-02-22T08:29:33.826Z,-12.98
2023-02-22T08:32:11.530Z,-12.77
2023-02-22T08:34:45.885Z,-12.80
2023-02-22T08:37:16.694Z,-12.81
2023-02-22T08:39:46.118Z,-13.10
2023-02-22T08:42:15.016Z,-13.11
2023-02-22T08:44:44.084Z,-12.80
2023-02-22T08:47:15.856Z,-12.74
2023-02-22T08:49:44.724Z,-12.68
2023-02-22T08:52:21.906Z,-12.32
2023-02-22T08:54:52.609Z,-12.11
2023-02-22T08:57:21.910Z,-12.08
2023-02-22T08:59:51.000Z,-12.08
2023-02-22T09:02:23.768Z,-12.05
2023-02-22T09:04:53.229Z,-12.44
2023-02-22T09:07:24.929Z,-12.52
2023-02-22T09:09:54.017Z,-12.23
2023-02-22T09:12:22.504Z,-12.26
2023-02-22T09:14:53.059Z,-12.39
2023-02-22T09:17:21.962Z,-12.51
2023-02-22T09:19:50.561Z,-12.39
2023-02-22T09:22:24.307Z,-12.03
2023-02-22T09:24:58.473Z,-11.87
2023-02-22T09:27:28.626Z,-12.25
2023-02-22T09:29:57.669Z,-11.72
2023-02-22T09:32:28.261Z,-11.47
2023-02-22T09:34:57.327Z,-11.70
2023-02-22T09:37:27.825Z,-11.38
2023-02-22T09:39:56.972Z,-11.20
2023-02-22T09:42:33.987Z,-11.39
2023-02-22T09:45:13.049Z,-11.39
2023-02-22T09:47:46.875Z,-11.09
2023-02-22T09:50:22.655Z,-11.07
2023-02-22T09:53:06.710Z,-11.61
2023-02-22T09:55:41.363Z,-11.62
2023-02-22T09:58:24.319Z,-11.45
2023-02-22T10:00:59.915Z,-11.62
2023-02-22T10:03:35.953Z,-11.78
2023-02-22T10:06:10.860Z,-11.59
2023-02-22T10:08:43.593Z,-11.52
2023-02-22T10:11:27.786Z,-11.65
2023-02-22T10:14:07.511Z,-11.58
2023-02-22T10:16:55.005Z,-11.47
2023-02-22T10:19:33.502Z,-11.69
2023-02-22T10:22:14.371Z,-11.18
2023-02-22T10:24:54.311Z,-11.36
2023-02-22T10:27:31.877Z,-11.24
2023-02-22T10:30:18.871Z,-11.18
2023-02-22T10:33:05.036Z,-10.65
2023-02-22T10:35:38.480Z,-10.64
2023-02-22T10:38:16.985Z,-10.62
2023-02-22T10:40:51.060Z,-10.74
2023-02-22T10:43:20.191Z,-11.14
2023-02-22T10:45:49.153Z,-11.16
2023-02-22T10:48:21.646Z,-11.08
2023-02-22T10:50:51.167Z,-11.09
2023-02-22T10:53:20.064Z,-11.01
2023-02-22T10:56:15.968Z,-10.86
2023-02-22T10:58:48.607Z,-10.68
2023-02-22T11:01:30.416Z,-10.58
2023-02-22T11:04:10.004Z,-10.12
2023-02-22T11:06:39.866Z,-10.08
2023-02-22T11:09:15.388Z,-10.08
2023-02-22T11:11:47.710Z,-10.17
2023-02-22T11:14:29.562Z,-10.35
2023-02-22T11:17:00.233Z,-10.54
2023-02-22T11:19:31.354Z,-10.75
2023-02-22T11:22:01.292Z,-10.69
2023-02-22T11:24:43.583Z,-10.52
2023-02-22T11:27:31.832Z,-10.33
2023-02-22T11:30:14.028Z,-10.19
2023-02-22T11:32:47.212Z,-10.07
2023-02-22T11:35:21.757Z,-10.35
2023-02-22T11:37:52.412Z,-9.96
2023-02-22T11:40:23.159Z,-9.98
2023-02-22T11:43:12.488Z,-10.10
2023-02-22T11:45:49.886Z,-10.11
2023-02-22T11:48:25.727Z,-10.04
2023-02-22T11:51:07.752Z,-10.20
2023-02-22T11:53:53.989Z,-10.00
2023-02-22T11:56:37.572Z,-9.99
2023-02-22T11:59:23.370Z,-10.00
2023-02-22T12:01:56.323Z,-9.98
2023-02-22T12:04:58.755Z,-9.92
2023-02-22T12:07:39.987Z,-9.68
2023-02-22T12:10:21.759Z,-9.59
2023-02-22T12:13:07.765Z,-9.47
2023-02-22T12:15:44.726Z,-9.34
2023-02-22T12:18:23.653Z,-9.34
2023-02-22T12:20:57.236Z,-9.35
2023-02-22T12:23:32.412Z,-9.64
2023-02-22T12:26:05.535Z,-9.72
2023-02-22T12:28:38.285Z,-9.65
2023-02-22T12:31:21.359Z,-9.61
2023-02-22T12:34:20.202Z,-9.48
2023-02-22T12:36:53.475Z,-9.28
2023-02-22T12:39:53.867Z,-9.20
2023-02-22T12:42:31.826Z,-9.14
2023-02-22T12:45:09.247Z,-8.94
2023-02-22T12:47:49.748Z,-8.91
2023-02-22T12:50:24.036Z,-9.32
2023-02-22T12:52:58.021Z,-9.23
2023-02-22T12:55:31.928Z,-8.70
2023-02-22T12:58:09.173Z,-8.72
2023-02-22T13:00:43.341Z,-8.58
2023-02-22T13:03:29.531Z,-8.89
2023-02-22T13:06:11.196Z,-8.59
2023-02-22T13:08:48.137Z,-8.50
2023-02-22T13:11:23.967Z,-8.42
2023-02-22T13:14:04.519Z,-8.55
2023-02-22T13:16:46.026Z,-8.62
2023-02-22T13:19:27.641Z,-8.70
2023-02-22T13:22:00.524Z,-8.69
2023-02-22T13:24:36.538Z,-8.86
2023-02-22T13:27:12.545Z,-8.90
2023-02-22T13:29:45.092Z,-9.06
2023-02-22T13:32:27.982Z,-8.95
2023-02-22T13:35:16.486Z,-9.14
2023-02-22T13:38:07.826Z,-9.42
2023-02-22T13:40:55.090Z,-9.26
2023-02-22T13:43:56.690Z,-9.05
2023-02-22T13:46:59.615Z,-9.17
2023-02-22T13:49:52.113Z,-9.15
2023-02-22T13:52:26.200Z,-9.20
2023-02-22T13:55:01.113Z,-9.35
2023-02-22T13:57:35.446Z,-9.32
2023-02-22T14:00:45.012Z,-9.05
2023-02-22T14:03:41.445Z,-9.04
2023-02-22T14:06:43.440Z,-8.88
2023-02-22T14:09:20.397Z,-8.84
2023-02-22T14:11:54.493Z,-9.07
2023-02-22T14:14:23.257Z,-9.37
2023-02-22T14:17:24.455Z,-9.37
2023-02-22T14:20:15.028Z,-9.43
2023-02-22T14:22:47.666Z,-9.38
2023-02-22T14:25:41.217Z,-9.39
2023-02-22T14:28:31.525Z,-9.45
2023-02-22T14:31:09.079Z,-9.84
2023-02-22T14:34:10.077Z,-9.79
2023-02-22T14:36:46.171Z,-9.83
2023-02-22T14:39:20.973Z,-9.83
2023-02-22T14:41:56.215Z,-9.94
2023-02-22T14:44:31.357Z,-9.93
2023-02-22T14:47:05.276Z,-10.02
2023-02-22T14:49:38.606Z,-10.05
2023-02-22T14:52:19.753Z,-9.87
2023-02-22T14:54:53.974Z,-9.59
2023-02-22T14:57:30.688Z,-9.68
2023-02-22T15:00:31.649Z,-9.55
2023-02-22T15:03:01.855Z,-9.42
2023-02-22T15:05:38.654Z,-9.40
2023-02-22T15:08:10.089Z,-9.47
2023-02-22T15:10:44.302Z,-9.83
2023-02-22T15:13:20.993Z,-9.95
2023-02-22T15:15:51.238Z,-10.09
2023-02-22T15:18:25.101Z,-10.09
2023-02-22T15:20:58.046Z,-10.06
2023-02-22T15:23:30.514Z,-10.04
2023-02-22T15:26:00.362Z,-10.45
2023-02-22T15:28:32.583Z,-10.77
2023-02-22T15:31:21.059Z,-10.98
2023-02-22T15:33:53.410Z,-11.04
2023-02-22T15:36:28.721Z,-11.03
2023-02-22T15:38:59.877Z,-11.50
2023-02-22T15:41:32.854Z,-11.39
2023-02-22T15:44:23.346Z,-11.29
2023-02-22T15:46:56.809Z,-11.40
2023-02-22T15:49:26.481Z,-11.43
2023-02-22T15:52:06.728Z,-11.50
2023-02-22T15:54:47.697Z,-11.51
2023-02-22T15:57:19.285Z,-11.60
2023-02-22T15:59:53.718Z,-11.97
2023-02-22T16:02:33.128Z,-12.18
2023-02-22T16:05:06.603Z,-12.37
2023-02-22T16:07:39.564Z,-12.32
2023-02-22T16:10:10.357Z,-12.66
2023-02-22T16:12:39.016Z,-12.55
2023-02-22T16:15:17.858Z,-12.70
2023-02-22T16:18:01.560Z,-12.92
2023-02-22T16:20:36.319Z,-13.05
2023-02-22T16:23:26.077Z,-13.01
2023-02-22T16:26:23.385Z,-13.21
2023-02-22T16:28:54.258Z,-13.55
2023-02-22T16:31:25.473Z,-13.80
2023-02-22T16:33:54.192Z,-13.58
2023-02-22T16:36:25.974Z,-13.36
2023-02-22T16:38:54.493Z,-13.43
2023-02-22T16:41:22.979Z,-13.48
2023-02-22T16:43:52.255Z,-13.72
2023-02-22T16:46:21.107Z,-13.80
2023-02-22T16:48:51.215Z,-13.94
2023-02-22T16:51:23.380Z,-13.93
2023-02-22T16:53:54.556Z,-14.20
2023-02-22T16:56:30.508Z,-15.01
2023-02-22T16:59:02.960Z,-15.47
2023-02-22T17:01:35.327Z,-15.40
2023-02-22T17:04:16.337Z,-14.97
2023-02-22T17:06:44.998Z,-15.02
2023-02-22T17:09:13.801Z,-15.18
2023-02-22T17:11:42.498Z,-15.34
2023-02-22T17:14:17.943Z,-15.53
2023-02-22T17:16:47.899Z,-15.22
2023-02-22T17:19:20.054Z,-15.13
2023-02-22T17:21:49.318Z,-15.73
2023-02-22T17:24:20.260Z,-15.88
2023-02-22T17:26:48.896Z,-15.74
2023-02-22T17:29:18.023Z,-15.67
2023-02-22T17:31:49.092Z,-15.50
2023-02-22T17:34:19.195Z,-15.12
2023-02-22T17:36:47.916Z,-15.25
2023-02-22T17:39:16.668Z,-15.22
2023-02-22T17:41:45.309Z,-15.49
2023-02-22T17:44:14.158Z,-15.74
2023-02-22T17:46:42.851Z,-15.58
2023-02-22T17:49:13.861Z,-15.74
2023-02-22T17:51:49.714Z,-15.74
2023-02-22T17:54:18.881Z,-15.68
2023-02-22T17:56:47.338Z,-15.66
2023-02-22T17:59:15.996Z,-15.69
2023-02-22T18:01:44.641Z,-15.89
2023-02-22T18:04:13.348Z,-16.19
2023-02-22T18:06:43.435Z,-16.09
2023-02-22T18:09:12.048Z,-16.26
2023-02-22T18:11:41.097Z,-16.14
2023-02-22T18:14:11.086Z,-16.26
2023-02-22T18:16:39.883Z,-16.17
2023-02-22T18:19:08.402Z,-16.16
2023-02-22T18:21:38.817Z,-16.22
2023-02-22T18:24:09.372Z,-16.21
2023-02-22T18:26:39.257Z,-16.44
2023-02-22T18:29:08.093Z,-16.97
2023-02-22T18:31:36.603Z,-17.33
2023-02-22T18:34:05.177Z,-17.42
2023-02-22T18:36:33.763Z,-16.94
2023-02-22T18:39:03.433Z,-17.30
2023-02-22T18:41:33.427Z,-17.19
2023-02-22T18:44:03.432Z,-17.41
2023-02-22T18:46:31.954Z,-17.51
2023-02-22T18:49:00.751Z,-17.50
2023-02-22T18:51:29.588Z,-17.46
2023-02-22T18:54:01.096Z,-17.15
2023-02-22T18:56:31.333Z,-17.50
2023-02-22T18:59:03.544Z,-17.64
2023-02-22T19:01:35.846Z,-17.42
2023-02-22T19:04:04.652Z,-17.37
2023-02-22T19:06:35.162Z,-18.23
2023-02-22T19:09:08.838Z,-18.66
2023-02-22T19:11:40.247Z,-18.40
2023-02-22T19:14:11.481Z,-18.04
2023-02-22T19:16:40.401Z,-17.91
2023-02-22T19:19:09.360Z,-18.12
2023-02-22T19:21:37.980Z,-18.03
2023-02-22T19:24:07.414Z,-17.86
2023-02-22T19:26:36.011Z,-17.95
2023-02-22T19:29:08.648Z,-17.89
2023-02-22T19:31:40.282Z,-17.75
2023-02-22T19:34:11.753Z,-18.19
2023-02-22T19:36:41.468Z,-18.19
2023-02-22T19:39:10.292Z,-18.95
2023-02-22T19:41:39.592Z,-19.60
2023-02-22T19:44:08.537Z,-20.29
2023-02-22T19:46:38.742Z,-20.49
2023-02-22T19:49:08.168Z,-20.42
2023-02-22T19:51:36.812Z,-20.55
2023-02-22T19:54:07.851Z,-20.40
2023-02-22T19:56:36.690Z,-20.68
2023-02-22T19:59:11.002Z,-20.35
2023-02-22T20:01:44.620Z,-20.01
2023-02-22T20:04:18.288Z,-19.79
2023-02-22T20:06:47.464Z,-19.71
2023-02-22T20:09:18.265Z,-19.76
2023-02-22T20:11:46.852Z,-19.34
2023-02-22T20:14:19.204Z,-19.18
2023-02-22T20:16:49.187Z,-19.21
2023-02-22T20:19:17.620Z,-19.02
2023-02-22T20:21:46.493Z,-18.96
2023-02-22T20:24:18.559Z,-19.26
2023-02-22T20:26:47.709Z,-18.93
2023-02-22T20:29:17.573Z,-18.83
2023-02-22T20:31:49.486Z,-18.71
2023-02-22T20:34:19.454Z,-18.85
2023-02-22T20:36:47.819Z,-18.93
2023-02-22T20:39:16.596Z,-19.37
2023-02-22T20:41:47.195Z,-20.57
2023-02-22T20:44:16.565Z,-20.89
2023-02-22T20:46:46.035Z,-20.25
2023-02-22T20:49:17.422Z,-20.11
2023-02-22T20:51:48.998Z,-19.67
2023-02-22T20:54:18.409Z,-19.84
2023-02-22T20:56:48.147Z,-20.20
2023-02-22T20:59:18.809Z,-20.15
2023-02-22T21:01:47.786Z,-19.76
2023-02-22T21:04:16.295Z,-19.77
2023-02-22T21:06:46.951Z,-19.69
2023-02-22T21:09:17.925Z,-19.59
2023-02-22T21:11:47.055Z,-19.50
2023-02-22T21:14:18.934Z,-19.62
2023-02-22T21:16:49.869Z,-19.57
2023-02-22T21:19:25.797Z,-19.46
2023-02-22T21:21:58.156Z,-19.74
2023-02-22T21:24:27.969Z,-19.88
2023-02-22T21:26:59.127Z,-20.19
2023-02-22T21:29:28.329Z,-20.29
2023-02-22T21:31:57.206Z,-20.02
2023-02-22T21:34:26.508Z,-20.29
2023-02-22T21:36:56.981Z,-20.95
2023-02-22T21:39:28.717Z,-21.14
2023-02-22T21:42:00.814Z,-21.39
2023-02-22T21:44:30.410Z,-21.18
2023-02-22T21:46:58.843Z,-20.90
2023-02-22T21:49:27.415Z,-20.61
2023-02-22T21:51:57.778Z,-20.38
2023-02-22T21:54:28.160Z,-20.22
2023-02-22T21:56:56.821Z,-20.61
2023-02-22T21:59:25.387Z,-20.91
2023-02-22T22:01:56.363Z,-20.76
2023-02-22T22:04:27.878Z,-20.88
2023-02-22T22:06:59.710Z,-20.67
2023-02-22T22:09:33.378Z,-20.37
2023-02-22T22:12:05.429Z,-20.63
2023-02-22T22:14:35.145Z,-20.80
2023-02-22T22:17:05.957Z,-20.74
2023-02-22T22:19:39.478Z,-20.55
2023-02-22T22:22:09.950Z,-20.42
2023-02-22T22:24:41.649Z,-21.00
2023-02-22T22:27:13.025Z,-21.20
2023-02-22T22:29:43.591Z,-20.65
2023-02-22T22:32:12.423Z,-20.80
2023-02-22T22:34:42.737Z,-20.84
2023-02-22T22:37:13.519Z,-21.03
2023-02-22T22:39:42.617Z,-21.35
2023-02-22T22:42:11.187Z,-21.06
2023-02-22T22:44:42.386Z,-21.24
2023-02-22T22:47:12.786Z,-20.89
2023-02-22T22:49:42.873Z,-20.69
2023-02-22T22:52:14.166Z,-20.48
2023-02-22T22:54:43.518Z,-20.28
2023-02-22T22:57:12.333Z,-20.07
2023-02-22T22:59:41.061Z,-20.12
2023-02-22T23:02:11.645Z,-20.01
2023-02-22T23:04:40.149Z,-20.69
2023-02-22T23:07:08.876Z,-20.44
2023-02-22T23:09:39.665Z,-20.94
2023-02-22T23:12:09.975Z,-20.88
2023-02-22T23:14:44.214Z,-20.59
2023-02-22T23:17:15.570Z,-20.64
2023-02-22T23:19:46.201Z,-21.05
2023-02-22T23:22:15.388Z,-21.29
2023-02-22T23:24:45.820Z,-21.60
2023-02-22T23:27:14.701Z,-21.22
2023-02-22T23:29:47.036Z,-21.60
2023-02-22T23:32:15.900Z,-21.42
2023-02-22T23:34:44.474Z,-21.18
2023-02-22T23:37:14.368Z,-21.66
2023-02-22T23:39:44.614Z,-21.91
2023-02-22T23:42:16.918Z,-22.19
2023-02-22T23:44:46.582Z,-22.31
2023-02-22T23:47:16.322Z,-21.73
2023-02-22T23:49:49.647Z,-21.99
2023-02-22T23:52:24.309Z,-21.95
2023-02-22T23:54:54.854Z,-22.68
2023-02-22T23:57:24.814Z,-22.72
2023-02-22T23:59:53.300Z,-22.19
